Time;durP1;ratioP1;P1;durP2;ratioP2;P2;SDS_P1;SDS_P2;PMS_P1;PMS_P2;Temp;Humidity;BMP_temperature;BMP_pressure;BME280_temperature;BME280_humidity;BME280_pressure;Samples;Min_cycle;Max_cycle;Signal;HPM_P1;HPM_P2
2022/03/10 00:00:55;;;;;;;15.97;11.93;;;9.20;41.70;;;;;;5050393;28;20222;-77
2022/03/10 00:03:22;;;;;;;15.87;12.20;;;9.10;42.10;;;;;;5037568;28;20210;-77
2022/03/10 00:06:03;;;;;;;15.87;11.50;;;9.10;42.10;;;;;;5034692;28;20203;-77
2022/03/10 00:08:30;;;;;;;16.07;12.20;;;9.10;41.90;;;;;;5031468;28;20195;-77
2022/03/10 00:10:59;;;;;;;17.23;12.30;;;9.10;42.00;;;;;;5044715;28;20207;-78
2022/03/10 00:13:30;;;;;;;16.47;11.63;;;9.00;42.40;;;;;;5048756;28;20206;-77
2022/03/10 00:15:57;;;;;;;15.13;11.43;;;8.90;42.50;;;;;;5024806;28;20210;-77
2022/03/10 00:18:25;;;;;;;14.33;11.77;;;8.90;42.50;;;;;;5028550;28;20214;-77
2022/03/10 00:20:52;;;;;;;17.13;11.50;;;8.90;42.60;;;;;;5048376;28;20743;-77
2022/03/10 00:23:20;;;;;;;16.17;11.80;;;8.90;42.60;;;;;;5043907;28;20206;-77
2022/03/10 00:25:47;;;;;;;14.90;11.70;;;8.80;42.80;;;;;;5025382;28;20205;-77
2022/03/10 00:28:18;;;;;;;16.17;12.40;;;8.80;42.90;;;;;;5043985;28;20211;-77
2022/03/10 00:30:45;;;;;;;14.93;11.87;;;8.80;42.90;;;;;;5031260;28;20192;-77
2022/03/10 00:33:12;;;;;;;14.57;11.80;;;8.80;43.00;;;;;;5033374;28;20206;-77
2022/03/10 00:35:40;;;;;;;17.80;12.90;;;8.80;43.10;;;;;;5025579;28;20202;-77
2022/03/10 00:38:07;;;;;;;16.60;12.97;;;8.70;43.10;;;;;;5023381;28;20210;-77
2022/03/10 00:40:35;;;;;;;16.60;12.03;;;8.70;43.10;;;;;;5029635;28;20195;-77
2022/03/10 00:43:02;;;;;;;17.07;12.97;;;8.70;43.40;;;;;;5016881;28;20203;-77
2022/03/10 00:45:48;;;;;;;17.10;12.83;;;8.70;43.30;;;;;;5053633;28;20194;-77
2022/03/10 00:48:15;;;;;;;17.83;12.80;;;8.70;43.50;;;;;;5032964;28;20206;-78
2022/03/10 00:50:43;;;;;;;15.93;12.87;;;8.70;43.30;;;;;;5034671;28;20583;-77
2022/03/10 00:53:11;;;;;;;15.47;12.10;;;8.70;43.40;;;;;;5029100;28;20203;-77
2022/03/10 00:55:39;;;;;;;15.03;12.03;;;8.60;43.50;;;;;;5049346;28;20202;-77
2022/03/10 00:58:06;;;;;;;15.43;12.20;;;8.70;43.60;;;;;;5027227;28;20210;-78
2022/03/10 01:00:34;;;;;;;17.73;12.57;;;8.60;44.00;;;;;;5058559;28;20198;-77
2022/03/10 01:03:04;;;;;;;17.63;12.67;;;8.60;44.20;;;;;;5025983;28;20703;-77
2022/03/10 01:05:31;;;;;;;17.73;12.73;;;8.60;44.40;;;;;;5029374;28;20195;-77
2022/03/10 01:07:59;;;;;;;15.53;12.13;;;8.60;44.30;;;;;;5048071;28;20195;-77
2022/03/10 01:10:27;;;;;;;17.53;13.03;;;8.60;44.30;;;;;;5032093;28;20210;-77
2022/03/10 01:13:03;;;;;;;14.97;12.17;;;8.60;44.20;;;;;;5053224;28;20191;-77
2022/03/10 01:15:30;;;;;;;14.97;12.30;;;8.60;44.30;;;;;;5025165;28;20198;-77
2022/03/10 01:17:58;;;;;;;17.50;13.43;;;8.60;44.50;;;;;;5025924;28;20206;-77
2022/03/10 01:20:27;;;;;;;19.47;13.33;;;8.50;44.80;;;;;;5055468;28;20202;-78
2022/03/10 01:22:54;;;;;;;17.33;12.70;;;8.60;45.00;;;;;;5045122;28;20221;-78
2022/03/10 01:25:22;;;;;;;15.50;11.93;;;8.50;44.70;;;;;;5042982;28;20214;-77
2022/03/10 01:27:49;;;;;;;16.93;13.00;;;8.40;44.90;;;;;;5036835;28;20203;-78
2022/03/10 01:30:17;;;;;;;15.43;11.83;;;8.50;45.30;;;;;;5048987;28;20680;-78
2022/03/10 01:32:45;;;;;;;18.17;12.47;;;8.60;45.20;;;;;;5030966;28;20210;-77
2022/03/10 01:35:12;;;;;;;18.63;13.23;;;8.70;44.60;;;;;;5026207;28;20210;-77
2022/03/10 01:37:41;;;;;;;15.00;12.07;;;8.60;44.70;;;;;;5025971;28;20194;-77
2022/03/10 01:40:12;;;;;;;16.97;13.20;;;8.60;44.90;;;;;;5032473;28;20560;-77
2022/03/10 01:42:40;;;;;;;17.50;12.77;;;8.50;44.80;;;;;;5024622;28;20731;-77
2022/03/10 01:45:08;;;;;;;15.70;12.30;;;8.60;45.10;;;;;;5027199;28;20209;-78
2022/03/10 01:47:36;;;;;;;16.33;13.23;;;8.50;45.30;;;;;;5038954;28;20211;-78
2022/03/10 01:50:04;;;;;;;17.00;13.43;;;8.30;46.20;;;;;;5045050;28;20727;-76
2022/03/10 01:52:31;;;;;;;18.57;13.73;;;8.30;46.10;;;;;;5027889;28;20234;-77
2022/03/10 01:55:01;;;;;;;16.40;13.13;;;8.30;45.80;;;;;;5045563;28;20206;-76
2022/03/10 01:57:28;;;;;;;16.80;13.23;;;8.20;46.40;;;;;;5028752;28;20191;-76
2022/03/10 01:59:56;;;;;;;20.17;12.73;;;8.20;46.00;;;;;;5025262;28;20198;-76
2022/03/10 02:02:23;;;;;;;16.20;13.97;;;8.20;46.10;;;;;;5024851;28;20226;-76
2022/03/10 02:04:51;;;;;;;18.03;13.80;;;8.10;47.10;;;;;;5044159;28;20194;-76
2022/03/10 02:10:17;;;;;;;18.33;13.57;;;8.00;46.60;;;;;;5024730;28;20202;-77
2022/03/10 02:12:46;;;;;;;20.63;14.23;;;7.90;46.90;;;;;;5026969;28;20221;-76
2022/03/10 02:18:00;;;;;;;16.70;13.40;;;7.90;47.40;;;;;;5024001;28;20229;-76
2022/03/10 02:20:27;;;;;;;18.33;13.93;;;7.90;47.20;;;;;;5024121;28;20209;-77
2022/03/10 02:22:56;;;;;;;18.77;14.27;;;8.00;47.20;;;;;;5026964;28;20228;-77
2022/03/10 02:25:25;;;;;;;17.50;13.30;;;7.80;46.90;;;;;;5022794;28;20198;-76
2022/03/10 02:27:55;;;;;;;18.90;13.43;;;7.80;46.90;;;;;;5041690;28;20194;-76
2022/03/10 02:30:24;;;;;;;16.23;13.37;;;7.80;47.10;;;;;;5025477;28;20202;-76
2022/03/10 02:32:52;;;;;;;16.70;12.60;;;7.70;47.00;;;;;;5025423;28;20218;-76
2022/03/10 02:35:19;;;;;;;20.13;13.80;;;7.70;46.90;;;;;;5020096;28;20653;-76
2022/03/10 02:37:47;;;;;;;19.90;13.53;;;7.70;46.60;;;;;;5024942;28;20203;-76
2022/03/10 02:40:28;;;;;;;16.93;13.00;;;7.70;46.60;;;;;;5023795;28;20202;-76
2022/03/10 02:42:56;;;;;;;17.37;13.07;;;7.60;46.60;;;;;;5042394;28;20598;-76
2022/03/10 02:45:24;;;;;;;17.73;12.53;;;7.70;46.70;;;;;;5025570;28;20718;-76
2022/03/10 02:47:51;;;;;;;14.37;11.63;;;7.70;46.60;;;;;;5027462;28;20198;-77
2022/03/10 02:50:19;;;;;;;15.53;12.57;;;7.60;46.40;;;;;;5036211;28;20547;-77
2022/03/10 02:52:46;;;;;;;15.23;12.33;;;7.60;46.60;;;;;;5039959;28;20213;-76
2022/03/10 02:55:14;;;;;;;16.00;12.00;;;7.60;46.80;;;;;;5043774;28;20190;-77
2022/03/10 02:57:46;;;;;;;16.47;11.53;;;7.50;46.90;;;;;;5026455;28;20202;-76
2022/03/10 03:00:15;;;;;;;17.03;12.80;;;7.50;47.40;;;;;;5020542;28;20194;-76
2022/03/10 03:02:43;;;;;;;16.30;12.47;;;7.70;47.30;;;;;;5029291;28;20225;-76
2022/03/10 03:05:13;;;;;;;14.30;11.00;;;7.60;46.70;;;;;;5044481;28;20218;-76
2022/03/10 03:07:42;;;;;;;15.77;12.03;;;7.70;46.60;;;;;;5044911;28;20609;-76
2022/03/10 03:10:10;;;;;;;14.60;11.60;;;7.50;46.30;;;;;;5050713;28;20199;-76
2022/03/10 03:12:44;;;;;;;15.00;11.57;;;7.60;46.40;;;;;;5025834;28;20703;-76
2022/03/10 03:15:15;;;;;;;15.37;11.20;;;7.50;46.20;;;;;;5042823;28;20202;-76
2022/03/10 03:17:42;;;;;;;14.93;11.17;;;7.50;46.40;;;;;;5034683;28;20664;-76
2022/03/10 03:20:14;;;;;;;14.67;10.70;;;7.50;46.20;;;;;;5053444;28;20194;-77
2022/03/10 03:22:42;;;;;;;15.47;10.97;;;7.60;46.00;;;;;;5032574;28;20607;-76
2022/03/10 03:25:10;;;;;;;13.67;10.70;;;7.60;46.00;;;;;;5054242;28;20202;-76
2022/03/10 03:27:37;;;;;;;13.17;10.67;;;7.60;46.10;;;;;;5051106;28;20206;-77
2022/03/10 03:30:34;;;;;;;13.97;11.13;;;7.50;46.00;;;;;;5027064;28;20565;-76
2022/03/10 03:33:01;;;;;;;16.73;11.70;;;7.50;46.00;;;;;;5028338;28;20199;-76
2022/03/10 03:35:31;;;;;;;14.63;11.17;;;7.50;46.10;;;;;;5029640;28;20209;-76
2022/03/10 03:37:58;;;;;;;15.80;10.90;;;7.50;46.20;;;;;;5046386;28;20190;-77
2022/03/10 03:40:26;;;;;;;13.97;11.30;;;7.50;46.20;;;;;;5049234;28;20199;-77
2022/03/10 03:42:53;;;;;;;13.37;11.07;;;7.60;46.40;;;;;;5055585;28;20229;-77
2022/03/10 03:45:21;;;;;;;14.30;10.90;;;7.60;46.10;;;;;;5024787;28;20198;-76
2022/03/10 03:47:50;;;;;;;13.03;10.80;;;7.70;46.20;;;;;;5033114;28;20656;-76
2022/03/10 03:50:17;;;;;;;13.83;11.03;;;7.80;46.30;;;;;;5048966;28;20560;-76
2022/03/10 03:52:44;;;;;;;15.97;11.87;;;7.80;46.40;;;;;;5045734;28;20210;-77
2022/03/10 03:55:12;;;;;;;15.67;11.53;;;7.70;46.30;;;;;;5031490;28;21247;-76
2022/03/10 03:57:40;;;;;;;13.20;10.50;;;7.60;46.50;;;;;;5054521;28;20198;-76
2022/03/10 04:00:10;;;;;;;15.13;11.83;;;7.60;46.40;;;;;;5028263;28;20205;-77
2022/03/10 04:02:37;;;;;;;15.33;12.43;;;7.60;47.00;;;;;;5035240;28;20214;-77
2022/03/10 04:05:07;;;;;;;18.07;12.50;;;7.40;47.70;;;;;;5051203;28;20206;-76
2022/03/10 04:07:34;;;;;;;16.13;12.90;;;7.40;48.10;;;;;;5028459;28;20210;-76
2022/03/10 04:10:19;;;;;;;19.10;13.53;;;7.40;48.70;;;;;;5042509;28;20230;-77
2022/03/10 04:12:46;;;;;;;16.57;12.10;;;7.20;49.60;;;;;;5044866;28;20741;-77
2022/03/10 04:15:14;;;;;;;17.60;13.57;;;7.20;49.20;;;;;;5027711;28;20199;-76
2022/03/10 04:18:18;;;;;;;17.97;13.47;;;7.20;49.40;;;;;;5026285;28;20210;-76
2022/03/10 04:20:48;;;;;;;16.40;12.93;;;7.00;50.10;;;;;;5042030;28;20201;-76
2022/03/10 04:23:16;;;;;;;17.33;13.27;;;6.90;49.70;;;;;;5025440;28;20726;-76
2022/03/10 04:25:44;;;;;;;17.33;12.83;;;6.90;49.60;;;;;;5059459;28;20845;-76
2022/03/10 04:28:11;;;;;;;19.33;12.97;;;6.90;49.60;;;;;;5032796;28;20209;-76
2022/03/10 04:30:38;;;;;;;17.40;13.20;;;6.80;50.10;;;;;;5029005;28;20202;-76
2022/03/10 04:33:07;;;;;;;17.77;13.67;;;6.70;50.90;;;;;;5032228;28;20207;-76
2022/03/10 04:35:34;;;;;;;17.27;14.60;;;6.60;50.90;;;;;;5028252;28;20203;-76
2022/03/10 04:38:03;;;;;;;16.83;13.30;;;6.60;50.90;;;;;;5032871;28;20198;-76
2022/03/10 04:40:31;;;;;;;15.33;11.90;;;6.60;51.30;;;;;;5027385;28;20203;-76
2022/03/10 04:42:59;;;;;;;17.10;12.67;;;6.70;50.80;;;;;;5038183;28;20233;-76
2022/03/10 04:45:26;;;;;;;18.10;13.53;;;6.80;51.30;;;;;;5037681;28;20199;-76
2022/03/10 04:47:54;;;;;;;18.67;14.97;;;6.70;51.20;;;;;;5037794;28;20207;-76
2022/03/10 04:50:21;;;;;;;18.17;13.23;;;6.50;51.80;;;;;;5048183;28;20536;-76
2022/03/10 04:52:49;;;;;;;15.90;11.40;;;6.50;52.00;;;;;;5046420;28;20231;-76
2022/03/10 04:55:17;;;;;;;18.00;13.50;;;6.50;51.30;;;;;;5027342;28;20222;-77
2022/03/10 04:57:45;;;;;;;16.90;12.73;;;6.60;50.90;;;;;;5058580;28;20181;-77
2022/03/10 05:00:16;;;;;;;18.83;13.63;;;6.60;51.10;;;;;;5051896;28;20550;-77
2022/03/10 05:02:43;;;;;;;16.87;12.17;;;6.70;51.20;;;;;;5020405;28;20226;-76
2022/03/10 05:05:12;;;;;;;17.43;12.40;;;6.80;51.30;;;;;;5049610;28;20728;-77
2022/03/10 05:07:40;;;;;;;16.33;11.67;;;6.60;50.50;;;;;;5032590;28;20212;-77
2022/03/10 05:10:08;;;;;;;15.37;11.07;;;6.50;50.60;;;;;;5032600;28;20197;-76
2022/03/10 05:12:48;;;;;;;14.00;10.43;;;6.70;50.00;;;;;;5032755;28;20222;-77
2022/03/10 05:15:19;;;;;;;14.53;10.80;;;6.80;49.40;;;;;;5032384;28;20199;-76
2022/03/10 05:17:47;;;;;;;13.67;10.80;;;6.60;49.60;;;;;;5019353;28;20206;-76
2022/03/10 05:20:15;;;;;;;14.57;11.37;;;6.50;49.70;;;;;;5027323;28;20217;-76
2022/03/10 05:23:06;;;;;;;13.10;9.67;;;6.50;50.00;;;;;;5037435;28;20222;-76
2022/03/10 05:25:35;;;;;;;13.40;9.80;;;6.70;49.10;;;;;;5025970;28;20653;-76
2022/03/10 05:28:06;;;;;;;13.17;9.50;;;6.90;48.50;;;;;;5026067;28;20214;-76
2022/03/10 05:30:34;;;;;;;12.73;10.07;;;6.90;48.40;;;;;;5025884;28;20203;-77
2022/03/10 05:33:01;;;;;;;12.47;10.27;;;6.70;48.70;;;;;;5027452;28;20201;-76
2022/03/10 05:35:29;;;;;;;13.97;10.00;;;6.60;49.00;;;;;;5027784;28;20210;-76
2022/03/10 05:37:57;;;;;;;12.93;10.03;;;6.50;49.30;;;;;;5029002;28;20564;-76
2022/03/10 05:40:24;;;;;;;15.40;10.30;;;6.70;48.90;;;;;;5028272;28;20198;-76
2022/03/10 05:42:53;;;;;;;15.20;10.37;;;6.80;48.60;;;;;;5047205;28;20239;-76
2022/03/10 05:45:23;;;;;;;14.20;10.80;;;6.80;48.80;;;;;;5024150;28;20237;-76
2022/03/10 05:47:52;;;;;;;16.43;11.40;;;6.60;49.60;;;;;;5031857;28;20206;-77
2022/03/10 05:50:20;;;;;;;14.40;10.77;;;6.50;50.50;;;;;;5024241;28;20194;-76
2022/03/10 05:52:48;;;;;;;12.23;9.90;;;6.40;50.70;;;;;;5027578;28;20213;-77
2022/03/10 05:55:16;;;;;;;14.50;10.93;;;6.50;50.10;;;;;;5025359;28;20202;-79
2022/03/10 05:57:44;;;;;;;13.27;10.13;;;6.70;49.70;;;;;;5026480;28;21262;-77
2022/03/10 06:00:14;;;;;;;14.57;10.57;;;6.70;50.40;;;;;;5044781;28;20194;-77
2022/03/10 06:02:43;;;;;;;15.00;11.10;;;6.60;50.40;;;;;;5032539;28;20230;-76
2022/03/10 06:05:11;;;;;;;13.73;10.30;;;6.60;50.20;;;;;;5025497;28;20222;-76
2022/03/10 06:07:38;;;;;;;13.43;10.47;;;6.60;50.00;;;;;;5048769;28;20198;-76
2022/03/10 06:10:10;;;;;;;15.30;10.67;;;6.70;49.50;;;;;;5045834;28;20193;-76
2022/03/10 06:12:38;;;;;;;15.23;10.73;;;6.90;49.80;;;;;;5037019;28;20687;-76
2022/03/10 06:15:08;;;;;;;11.70;9.57;;;6.90;49.20;;;;;;5029427;28;20206;-75
2022/03/10 06:17:36;;;;;;;11.23;9.10;;;7.00;50.60;;;;;;5033997;28;20214;-73
2022/03/10 06:20:06;;;;;;;16.63;11.40;;;7.50;54.80;;;;;;5046941;28;20779;-74
2022/03/10 06:22:38;;;;;;;11.90;8.97;;;7.30;50.10;;;;;;5026143;28;20222;-73
2022/03/10 06:25:07;;;;;;;17.37;11.67;;;8.20;54.10;;;;;;5027803;28;20214;-75
2022/03/10 06:27:34;;;;;;;15.50;10.97;;;7.40;50.20;;;;;;5040787;28;20190;-76
2022/03/10 06:30:02;;;;;;;16.27;10.93;;;7.30;49.20;;;;;;5041826;28;20211;-75
2022/03/10 06:32:29;;;;;;;15.80;10.80;;;7.30;48.90;;;;;;5023819;28;20222;-77
2022/03/10 06:34:59;;;;;;;15.00;11.60;;;7.20;48.80;;;;;;5021035;28;20191;-75
2022/03/10 06:37:28;;;;;;;15.70;12.57;;;7.10;49.40;;;;;;5029685;28;20198;-75
2022/03/10 06:39:55;;;;;;;17.57;13.30;;;7.10;49.90;;;;;;5026347;28;20565;-75
2022/03/10 06:42:31;;;;;;;17.90;13.30;;;7.20;50.00;;;;;;5044897;28;20218;-74
2022/03/10 06:44:58;;;;;;;13.67;10.97;;;7.30;50.70;;;;;;5032116;28;20224;-74
2022/03/10 06:47:26;;;;;;;19.20;13.10;;;7.20;50.50;;;;;;5028715;28;20209;-75
2022/03/10 06:49:53;;;;;;;15.27;11.03;;;7.10;51.00;;;;;;5048643;28;20209;-75
2022/03/10 06:52:21;;;;;;;20.37;13.23;;;7.20;49.70;;;;;;5031805;28;20222;-76
2022/03/10 06:58:14;;;;;;;18.87;13.63;;;7.10;50.80;;;;;;5046992;28;20297;-75
2022/03/10 07:01:20;;;;;;;14.60;12.30;;;7.20;50.70;;;;;;5034046;28;20703;-75
2022/03/10 07:03:48;;;;;;;16.57;12.33;;;7.30;50.90;;;;;;5018714;28;20206;-76
2022/03/10 07:06:19;;;;;;;16.70;12.20;;;7.50;49.70;;;;;;5032260;28;20206;-75
2022/03/10 07:08:49;;;;;;;18.80;12.60;;;7.70;49.90;;;;;;5053783;28;20198;-76
2022/03/10 07:11:49;;;;;;;24.70;15.50;;;7.70;49.00;;;;;;5026935;28;20246;-76
2022/03/10 07:14:19;;;;;;;16.90;13.23;;;7.80;49.70;;;;;;5043474;28;20189;-76
2022/03/10 07:17:11;;;;;;;16.60;13.07;;;7.90;50.10;;;;;;5051824;28;20198;-76
2022/03/10 07:19:42;;;;;;;16.33;12.67;;;8.10;50.70;;;;;;5046779;28;20226;-78
2022/03/10 07:22:09;;;;;;;19.30;13.27;;;8.10;50.80;;;;;;5043227;28;20217;-77
2022/03/10 07:24:36;;;;;;;19.37;13.30;;;8.00;49.90;;;;;;5020779;28;20586;-77
2022/03/10 07:27:04;;;;;;;19.70;13.77;;;8.10;49.50;;;;;;5028756;28;20202;-78
2022/03/10 07:29:33;;;;;;;19.17;13.27;;;8.10;49.40;;;;;;5036158;28;20204;-77
2022/03/10 07:32:00;;;;;;;17.90;13.50;;;8.10;49.00;;;;;;5030891;28;20222;-77
2022/03/10 07:34:30;;;;;;;19.63;13.03;;;8.20;48.50;;;;;;5021218;28;20203;-77
2022/03/10 07:36:59;;;;;;;22.83;14.17;;;8.10;48.80;;;;;;5047062;28;20198;-77
2022/03/10 07:39:27;;;;;;;17.83;12.47;;;8.20;49.40;;;;;;5030948;28;20191;-78
2022/03/10 07:41:54;;;;;;;17.27;12.50;;;8.10;50.20;;;;;;5033752;28;20225;-78
2022/03/10 07:44:27;;;;;;;14.53;11.77;;;8.30;49.40;;;;;;5035921;28;20210;-79
2022/03/10 07:46:55;;;;;;;16.03;11.73;;;8.40;48.30;;;;;;5043147;28;20206;-80
2022/03/10 07:49:23;;;;;;;16.57;11.50;;;8.50;48.10;;;;;;5045373;28;20199;-78
2022/03/10 07:51:50;;;;;;;17.50;12.03;;;8.60;47.40;;;;;;5047464;28;20218;-78
2022/03/10 07:54:18;;;;;;;17.37;11.67;;;8.60;47.80;;;;;;5043314;28;20224;-79
2022/03/10 07:56:45;;;;;;;18.47;12.43;;;8.70;47.00;;;;;;5051106;28;20191;-78
2022/03/10 07:59:12;;;;;;;16.63;12.17;;;8.70;47.10;;;;;;5031139;28;20217;-78
2022/03/10 08:01:40;;;;;;;19.37;11.93;;;8.80;46.50;;;;;;5022911;28;20707;-79
2022/03/10 08:04:08;;;;;;;15.17;11.17;;;8.80;46.40;;;;;;5038012;28;20198;-81
2022/03/10 08:06:36;;;;;;;15.67;11.83;;;8.80;46.30;;;;;;5041516;28;20311;-78
2022/03/10 08:09:06;;;;;;;16.40;12.60;;;8.90;46.40;;;;;;5023013;28;20580;-77
2022/03/10 08:11:33;;;;;;;16.27;12.70;;;8.90;46.30;;;;;;5043577;28;20233;-78
2022/03/10 08:14:01;;;;;;;17.83;12.10;;;9.00;46.70;;;;;;5012762;28;20210;-80
2022/03/10 08:16:30;;;;;;;17.93;12.40;;;9.00;46.30;;;;;;5016754;28;20601;-78
2022/03/10 08:18:57;;;;;;;18.07;12.80;;;9.00;46.60;;;;;;5046026;28;20207;-79
2022/03/10 08:21:26;;;;;;;17.57;12.70;;;9.10;46.50;;;;;;5046890;28;20226;-80
2022/03/10 08:23:54;;;;;;;16.87;12.30;;;9.20;46.50;;;;;;5047682;28;20213;-78
2022/03/10 08:26:21;;;;;;;20.60;13.17;;;9.30;46.40;;;;;;5024183;28;20314;-82
2022/03/10 08:28:53;;;;;;;18.27;12.60;;;9.30;46.20;;;;;;5012860;28;20202;-79
2022/03/10 08:31:21;;;;;;;18.17;12.77;;;9.30;46.40;;;;;;5040106;28;20245;-79
2022/03/10 08:33:49;;;;;;;19.33;12.20;;;9.30;46.30;;;;;;5020658;28;20693;-76
2022/03/10 08:36:16;;;;;;;18.90;13.30;;;9.40;46.00;;;;;;5026093;28;20594;-78
2022/03/10 08:38:45;;;;;;;22.43;14.00;;;9.50;46.10;;;;;;5045697;28;20213;-78
2022/03/10 08:41:21;;;;;;;19.33;13.60;;;9.60;46.40;;;;;;5037973;28;20214;-78
2022/03/10 08:43:48;;;;;;;18.10;13.53;;;9.70;46.00;;;;;;5029404;28;20193;-77
2022/03/10 08:46:16;;;;;;;21.03;14.60;;;9.70;46.40;;;;;;5029445;28;20206;-78
2022/03/10 08:48:44;;;;;;;22.97;15.03;;;9.80;47.30;;;;;;5030557;28;20221;-77
2022/03/10 08:51:12;;;;;;;19.50;13.57;;;9.90;46.80;;;;;;5034188;28;20228;-77
2022/03/10 08:53:39;;;;;;;22.27;14.90;;;10.10;47.10;;;;;;5043264;28;20211;-77
2022/03/10 08:56:09;;;;;;;22.17;15.10;;;10.10;45.70;;;;;;5057826;28;20198;-77
2022/03/10 08:58:36;;;;;;;23.03;15.13;;;10.10;46.30;;;;;;5032793;28;20207;-78
2022/03/10 09:01:04;;;;;;;20.43;15.60;;;10.20;46.20;;;;;;5050682;28;20206;-78
2022/03/10 09:03:31;;;;;;;22.90;15.17;;;10.30;45.90;;;;;;5056761;28;20202;-77
2022/03/10 09:05:59;;;;;;;21.97;15.23;;;10.40;45.70;;;;;;5051744;28;20217;-77
2022/03/10 09:08:26;;;;;;;21.57;15.47;;;10.40;45.80;;;;;;5052102;28;20191;-77
2022/03/10 09:10:54;;;;;;;21.83;16.23;;;10.40;44.80;;;;;;5031699;28;20229;-78
2022/03/10 09:13:23;;;;;;;24.10;15.93;;;10.50;45.60;;;;;;5032732;28;20564;-77
2022/03/10 09:15:50;;;;;;;22.90;15.90;;;10.50;45.80;;;;;;5018127;28;20186;-78
2022/03/10 09:18:17;;;;;;;26.50;15.20;;;10.60;45.00;;;;;;5050057;28;20205;-78
2022/03/10 09:20:45;;;;;;;25.60;16.50;;;10.80;45.20;;;;;;5032738;28;20536;-78
2022/03/10 09:23:12;;;;;;;23.57;16.40;;;10.90;44.40;;;;;;5051458;28;20202;-77
2022/03/10 09:25:40;;;;;;;22.10;15.90;;;10.90;45.40;;;;;;5033776;28;20226;-78
2022/03/10 09:28:07;;;;;;;23.70;16.07;;;10.90;44.90;;;;;;5044656;28;20202;-79
2022/03/10 09:30:36;;;;;;;22.93;16.40;;;11.10;45.10;;;;;;5056346;28;20193;-78
2022/03/10 09:33:03;;;;;;;23.77;16.17;;;11.20;45.00;;;;;;5044362;28;20575;-77
2022/03/10 09:35:31;;;;;;;25.00;16.93;;;11.20;44.40;;;;;;5048695;28;20194;-77
2022/03/10 09:37:58;;;;;;;24.53;17.90;;;11.20;44.20;;;;;;5030143;28;20207;-77
2022/03/10 09:40:26;;;;;;;25.93;18.00;;;11.40;44.50;;;;;;5038038;28;20194;-78
2022/03/10 09:42:53;;;;;;;24.70;17.10;;;11.50;43.80;;;;;;5037895;28;20222;-77
2022/03/10 09:45:20;;;;;;;22.90;16.50;;;11.70;44.70;;;;;;5031005;28;20206;-77
2022/03/10 09:47:49;;;;;;;26.98;18.00;;;11.90;44.80;;;;;;5059949;28;20190;-77
2022/03/10 09:50:19;;;;;;;26.20;17.15;;;12.00;44.00;;;;;;5042842;28;20202;-77
2022/03/10 09:52:47;;;;;;;27.92;17.77;;;12.20;43.20;;;;;;5032958;28;20226;-78
2022/03/10 09:55:18;;;;;;;24.40;16.83;;;12.00;42.60;;;;;;5020893;28;20202;-77
2022/03/10 09:57:46;;;;;;;26.60;18.05;;;12.00;42.80;;;;;;5041956;28;20194;-78
2022/03/10 10:00:16;;;;;;;29.37;18.30;;;12.20;42.50;;;;;;5054123;28;20201;-77
2022/03/10 10:02:44;;;;;;;26.08;17.48;;;12.40;42.70;;;;;;5036700;28;20228;-77
2022/03/10 10:05:27;;;;;;;25.95;17.13;;;12.60;42.60;;;;;;5051089;28;20660;-77
2022/03/10 10:08:05;;;;;;;25.52;17.92;;;12.80;43.00;;;;;;5029136;28;20203;-77
2022/03/10 10:10:35;;;;;;;26.10;16.95;;;12.80;42.70;;;;;;5046609;28;20201;-78
2022/03/10 10:13:06;;;;;;;27.77;18.70;;;12.90;42.40;;;;;;5035908;28;20269;-79
2022/03/10 10:15:34;;;;;;;26.92;17.50;;;13.00;42.00;;;;;;5032808;28;20551;-78
2022/03/10 10:18:05;;;;;;;24.67;16.70;;;13.00;41.60;;;;;;5049503;28;20203;-78
2022/03/10 10:20:46;;;;;;;29.75;18.40;;;13.20;41.00;;;;;;5028015;28;20203;-77
2022/03/10 10:23:22;;;;;;;27.90;17.45;;;13.30;42.90;;;;;;5031382;28;20194;-77
2022/03/10 10:25:52;;;;;;;27.35;17.80;;;13.10;40.30;;;;;;5042892;28;20223;-78
2022/03/10 10:28:28;;;;;;;26.08;18.60;;;13.10;40.90;;;;;;5034433;28;20195;-79
2022/03/10 10:30:58;;;;;;;25.27;17.33;;;13.40;41.40;;;;;;5029053;28;20221;-80
2022/03/10 10:33:27;;;;;;;22.83;17.77;;;13.60;41.40;;;;;;5062019;28;20203;-78
2022/03/10 10:36:14;;;;;;;21.83;17.15;;;13.60;39.40;;;;;;5052393;28;20204;-77
2022/03/10 10:38:42;;;;;;;22.75;17.33;;;13.60;39.10;;;;;;5034594;28;20205;-75
2022/03/10 10:41:42;;;;;;;25.80;18.40;;;13.60;40.10;;;;;;5034307;28;20226;-75
2022/03/10 10:44:12;;;;;;;27.20;17.48;;;13.60;38.90;;;;;;5037406;28;20684;-76
2022/03/10 10:46:41;;;;;;;24.90;17.42;;;13.80;39.80;;;;;;5055150;28;20210;-76
2022/03/10 10:49:10;;;;;;;24.73;17.30;;;14.00;39.40;;;;;;5054128;28;20205;-77
2022/03/10 10:51:42;;;;;;;26.35;17.45;;;14.20;38.40;;;;;;5055788;28;20244;-78
2022/03/10 10:54:12;;;;;;;26.15;18.10;;;14.00;37.20;;;;;;5040903;28;20217;-80
2022/03/10 10:56:56;;;;;;;24.98;16.90;;;13.90;36.50;;;;;;5071739;28;20193;-79
2022/03/10 10:59:27;;;;;;;24.23;16.60;;;14.00;36.50;;;;;;5042578;28;20198;-79
2022/03/10 11:02:09;;;;;;;22.92;16.67;;;14.10;36.40;;;;;;5055608;28;20214;-78
2022/03/10 11:04:38;;;;;;;23.70;15.93;;;14.10;36.10;;;;;;5024539;28;20213;-77
2022/03/10 11:07:09;;;;;;;23.92;16.42;;;14.40;36.30;;;;;;5041589;28;20220;-78
2022/03/10 11:09:38;;;;;;;22.95;16.88;;;14.50;36.10;;;;;;5038544;28;20197;-78
2022/03/10 11:12:07;;;;;;;23.83;16.75;;;14.70;36.00;;;;;;5042522;28;20599;-78
2022/03/10 11:14:43;;;;;;;19.95;16.05;;;14.60;35.80;;;;;;5054920;28;20205;-76
2022/03/10 11:17:12;;;;;;;23.55;16.48;;;14.70;35.60;;;;;;5037169;28;20217;-78
2022/03/10 11:19:45;;;;;;;22.55;15.80;;;14.80;35.10;;;;;;5047357;28;20656;-78
2022/03/10 11:22:24;;;;;;;24.38;15.75;;;15.00;36.00;;;;;;5035873;28;20218;-78
2022/03/10 11:25:31;;;;;;;22.95;16.35;;;15.00;34.90;;;;;;5033078;28;20202;-79
2022/03/10 11:28:03;;;;;;;19.75;14.63;;;15.10;34.50;;;;;;5039222;28;20215;-78
2022/03/10 11:30:33;;;;;;;21.92;15.15;;;15.10;33.50;;;;;;5040273;28;20696;-78
2022/03/10 11:33:02;;;;;;;20.80;15.57;;;15.30;34.70;;;;;;5065156;28;20546;-77
2022/03/10 11:35:33;;;;;;;20.08;14.65;;;15.40;33.40;;;;;;5042479;28;20210;-78
2022/03/10 11:38:02;;;;;;;17.95;14.45;;;15.50;33.80;;;;;;5043626;28;20559;-78
2022/03/10 11:40:47;;;;;;;21.75;15.18;;;15.50;34.00;;;;;;5032838;28;20202;-79
2022/03/10 11:43:29;;;;;;;17.05;13.70;;;15.60;34.40;;;;;;5031606;28;20209;-78
2022/03/10 11:46:16;;;;;;;18.05;13.90;;;15.90;34.70;;;;;;5056206;28;20200;-78
2022/03/10 11:48:43;;;;;;;19.27;13.80;;;15.80;32.90;;;;;;5044203;28;20683;-78
2022/03/10 11:51:18;;;;;;;19.15;14.48;;;15.90;33.90;;;;;;5039810;28;20218;-78
2022/03/10 11:54:07;;;;;;;16.45;12.82;;;16.00;34.20;;;;;;5048858;28;20212;-78
2022/03/10 11:57:05;;;;;;;17.70;13.48;;;15.90;33.80;;;;;;5040936;28;20194;-78
2022/03/10 11:59:52;;;;;;;18.75;14.05;;;16.00;33.00;;;;;;5044144;28;20202;-77
2022/03/10 12:02:43;;;;;;;18.10;14.02;;;16.30;33.00;;;;;;5032854;28;20245;-78
2022/03/10 12:05:12;;;;;;;15.75;13.73;;;16.40;31.70;;;;;;5035642;28;20656;-78
2022/03/10 12:07:54;;;;;;;17.73;12.02;;;16.70;33.00;;;;;;5062665;28;20210;-78
2022/03/10 12:10:40;;;;;;;17.05;13.50;;;16.70;32.50;;;;;;5029303;28;20210;-79
2022/03/10 12:13:29;;;;;;;18.38;12.40;;;16.90;32.00;;;;;;5033316;28;20194;-78
2022/03/10 12:15:57;;;;;;;16.48;12.00;;;16.70;31.30;;;;;;5043086;28;20204;-78
2022/03/10 12:18:59;;;;;;;16.58;11.52;;;16.90;32.00;;;;;;5043698;28;20205;-78
2022/03/10 12:21:28;;;;;;;13.85;10.80;;;17.00;31.20;;;;;;5045935;28;20222;-78
2022/03/10 12:23:57;;;;;;;12.63;10.07;;;17.60;32.20;;;;;;5037694;28;20207;-78
2022/03/10 12:27:02;;;;;;;12.02;10.52;;;17.50;32.20;;;;;;5027423;28;20207;-78
2022/03/10 12:33:25;;;;;;;9.57;7.88;;;17.30;32.20;;;;;;5058564;28;20171;-78
2022/03/10 12:35:55;;;;;;;10.02;7.65;;;17.30;31.40;;;;;;5052454;28;20469;-78
2022/03/10 12:38:39;;;;;;;9.18;8.07;;;17.30;33.00;;;;;;5034948;28;20195;-78
2022/03/10 12:41:07;;;;;;;9.93;8.07;;;17.60;33.70;;;;;;5027011;28;20245;-78
2022/03/10 12:44:16;;;;;;;9.85;8.07;;;17.60;32.00;;;;;;5044100;28;20705;-78
2022/03/10 12:47:10;;;;;;;9.30;6.90;;;17.60;32.20;;;;;;5044080;28;20198;-78
2022/03/10 12:49:40;;;;;;;10.13;6.95;;;17.70;32.00;;;;;;5024368;28;20546;-81
2022/03/10 12:52:10;;;;;;;9.55;7.13;;;17.90;33.50;;;;;;5059066;28;20692;-82
2022/03/10 12:54:40;;;;;;;9.40;6.80;;;18.30;33.20;;;;;;5060837;28;20201;-81
2022/03/10 12:57:11;;;;;;;7.45;6.65;;;18.50;32.70;;;;;;5026482;28;20195;-81
2022/03/10 12:59:41;;;;;;;9.40;7.68;;;18.50;30.90;;;;;;5044360;28;20210;-82
2022/03/10 13:02:16;;;;;;;8.15;6.97;;;18.70;30.50;;;;;;5058648;28;20231;-82
2022/03/10 13:04:50;;;;;;;8.18;6.30;;;18.80;30.50;;;;;;5038654;28;20736;-81
2022/03/10 13:07:19;;;;;;;7.70;6.35;;;18.70;30.40;;;;;;5049610;28;20213;-80